Pedro Bay, AK

08:16 AM AKDT em 31 de Outubro de 2014 (GMT -0800)
Iliamna | Change Station
CLOSE
Current Station
Aeroporto
Location: Iliamna,
Altitude: 161 ft
Estações Meteorológicas Próximas

Elev 161 ft 59.75 °N, 154.91 °W | Updated 23 minutes ago

Partly Cloudy
Parcialmente Nublado
14 °F
Aparente 0 °F
N
13
Vento Variável Vento de Norte

Hoje
Máxima -- | Mínima -- °F
--% Possibilidade de Precip.
Ontem
Máxima -- | Mínima -- °F
Precip. -- pol
9:38 AM 6:26 PM
Quarto crescente, 56% visible
Pressão 29.22 pol
Visibilidade 10.0 milhas
Nuvens Poucas 1600 ft
Sensação Térmica 0 °F
Ponto de Orvalho 10 °F
Humidade 84%
Chuva 0.00 pol
Altura de Neve Não disponível
UV 0 em vez de 12
Pólen Não disponível
Qualidade do Ar Não disponível
Flu Activity Não disponível
METAR PAIL 311553Z 01011KT 10SM FEW016 M10/M12 A2921 RMK SLP894 T11001122 VIA AUTODIAL

More Conditions Fewer Conditions

Pressão 29.22 pol
Visibilidade 10.0 milhas
Nuvens Poucas 1600 ft
Sensação Térmica 0 °F
Ponto de Orvalho 10 °F
Humidade 84%
Chuva 0.00 pol
Altura de Neve Não disponível
UV 0 em vez de 12
Pólen Não disponível
Qualidade do Ar Não disponível
Flu Activity Não disponível
METAR PAIL 311553Z 01011KT 10SM FEW016 M10/M12 A2921 RMK SLP894 T11001122 VIA AUTODIAL

More Conditions Fewer Conditions

10-Day Weather Forecast

Almanac

Astronomia

Oct. 31, 2014 Nascer Pôr
Hora atual
Crepúsculo civil
Crepúsculo náutico
Crepúsculo astronómico
Lua
Comprimento da luz visível
Duração do Dia
Tomorrow will be .
, % of the Moon is Illuminated

Extremos de Hoje

situação na parte mais alta situação na parte mais baixa

Community

WunderPhotos

Upload Photos

1,766,651 fotografias inseridas!

WunderBlogs® & News

Nearby

Qualidade do Ar

  Qualidade do Ar Índice da Q.A. Poluente
Not available.

Altura da Neve

Estação altura Altitude

Actividade Sísmisca

Cidade Distância Mag. Hora & Data
Mínima magnitude apresentada é 2.5.

Temperaturas das Águas Costeiras

Local Temperatura

Estações Meteorológicas Próximas